sensor_id;sensor_type;location;lat;lon;timestamp;temperature;humidity
65995;HTU21D;52764;51.036;5.852;2023-06-26T00:00:42;22.88;55.66
65995;HTU21D;52764;51.036;5.852;2023-06-26T00:03:07;26.43;55.92
65995;HTU21D;52764;51.036;5.852;2023-06-26T00:05:33;26.39;55.96
65995;HTU21D;52764;51.036;5.852;2023-06-26T00:07:59;26.37;55.67
65995;HTU21D;52764;51.036;5.852;2023-06-26T00:10:28;26.38;55.40
65995;HTU21D;52764;51.036;5.852;2023-06-26T00:12:54;26.43;55.20
65995;HTU21D;52764;51.036;5.852;2023-06-26T00:15:20;26.39;54.84
65995;HTU21D;52764;51.036;5.852;2023-06-26T00:17:45;26.40;54.36
65995;HTU21D;52764;51.036;5.852;2023-06-26T00:20:11;26.41;53.93
65995;HTU21D;52764;51.036;5.852;2023-06-26T00:22:39;26.41;53.55
65995;HTU21D;52764;51.036;5.852;2023-06-26T00:25:06;26.43;53.39
65995;HTU21D;52764;51.036;5.852;2023-06-26T00:27:33;26.41;53.21
65995;HTU21D;52764;51.036;5.852;2023-06-26T00:29:58;26.41;52.94
65995;HTU21D;52764;51.036;5.852;2023-06-26T00:32:24;26.40;52.85
65995;HTU21D;52764;51.036;5.852;2023-06-26T00:34:50;26.36;53.33
65995;HTU21D;52764;51.036;5.852;2023-06-26T00:37:16;25.31;53.72
65995;HTU21D;52764;51.036;5.852;2023-06-26T00:39:41;26.30;53.81
65995;HTU21D;52764;51.036;5.852;2023-06-26T00:42:07;26.23;54.14
65995;HTU21D;52764;51.036;5.852;2023-06-26T00:44:33;26.19;53.84
65995;HTU21D;52764;51.036;5.852;2023-06-26T00:46:59;26.17;52.69
65995;HTU21D;52764;51.036;5.852;2023-06-26T00:49:26;26.17;52.01
65995;HTU21D;52764;51.036;5.852;2023-06-26T00:51:53;26.16;51.27
65995;HTU21D;52764;51.036;5.852;2023-06-26T00:54:19;26.19;51.06
65995;HTU21D;52764;51.036;5.852;2023-06-26T00:56:48;26.21;51.01
65995;HTU21D;52764;51.036;5.852;2023-06-26T00:59:14;26.23;50.93
65995;HTU21D;52764;51.036;5.852;2023-06-26T01:01:40;26.25;50.83
65995;HTU21D;52764;51.036;5.852;2023-06-26T01:04:09;26.26;50.73
65995;HTU21D;52764;51.036;5.852;2023-06-26T01:06:47;26.25;50.77
65995;HTU21D;52764;51.036;5.852;2023-06-26T01:09:17;26.22;50.88
65995;HTU21D;52764;51.036;5.852;2023-06-26T01:11:43;26.21;50.92
65995;HTU21D;52764;51.036;5.852;2023-06-26T01:14:09;26.19;51.08
65995;HTU21D;52764;51.036;5.852;2023-06-26T01:16:36;26.17;51.04
65995;HTU21D;52764;51.036;5.852;2023-06-26T01:19:11;26.15;51.22
65995;HTU21D;52764;51.036;5.852;2023-06-26T01:21:43;26.12;51.26
65995;HTU21D;52764;51.036;5.852;2023-06-26T01:24:16;26.13;51.35
65995;HTU21D;52764;51.036;5.852;2023-06-26T01:26:50;26.13;51.43
65995;HTU21D;52764;51.036;5.852;2023-06-26T01:29:18;26.08;51.63
65995;HTU21D;52764;51.036;5.852;2023-06-26T01:31:47;26.04;51.91
65995;HTU21D;52764;51.036;5.852;2023-06-26T01:34:17;22.03;52.11
65995;HTU21D;52764;51.036;5.852;2023-06-26T01:36:44;25.98;52.26
65995;HTU21D;52764;51.036;5.852;2023-06-26T01:39:15;25.96;52.46
65995;HTU21D;52764;51.036;5.852;2023-06-26T01:41:43;25.91;52.66
65995;HTU21D;52764;51.036;5.852;2023-06-26T01:54:58;25.76;53.59
65995;HTU21D;52764;51.036;5.852;2023-06-26T01:57:31;25.69;53.81
65995;HTU21D;52764;51.036;5.852;2023-06-26T01:59:59;25.68;53.86
65995;HTU21D;52764;51.036;5.852;2023-06-26T02:02:25;25.66;53.97
65995;HTU21D;52764;51.036;5.852;2023-06-26T02:04:53;25.64;54.00
65995;HTU21D;52764;51.036;5.852;2023-06-26T02:07:19;25.61;50.86
65995;HTU21D;52764;51.036;5.852;2023-06-26T02:09:45;25.58;53.44
65995;HTU21D;52764;51.036;5.852;2023-06-26T02:12:10;25.54;53.38
65995;HTU21D;52764;51.036;5.852;2023-06-26T02:14:36;25.52;53.34
65995;HTU21D;52764;51.036;5.852;2023-06-26T02:17:02;25.47;53.59
65995;HTU21D;52764;51.036;5.852;2023-06-26T02:19:28;25.46;53.69
65995;HTU21D;52764;51.036;5.852;2023-06-26T02:21:54;25.44;53.81
65995;HTU21D;52764;51.036;5.852;2023-06-26T02:24:22;25.40;53.91
65995;HTU21D;52764;51.036;5.852;2023-06-26T02:26:48;20.70;54.15
65995;HTU21D;52764;51.036;5.852;2023-06-26T02:29:15;25.30;54.37
65995;HTU21D;52764;51.036;5.852;2023-06-26T02:31:40;25.28;54.41
65995;HTU21D;52764;51.036;5.852;2023-06-26T02:34:07;25.29;54.49
65995;HTU21D;52764;51.036;5.852;2023-06-26T02:36:33;25.25;54.56
65995;HTU21D;52764;51.036;5.852;2023-06-26T02:38:59;25.89;54.45
65995;HTU21D;52764;51.036;5.852;2023-06-26T02:41:24;20.40;54.30
65995;HTU21D;52764;51.036;5.852;2023-06-26T02:43:50;25.22;54.30
65995;HTU21D;52764;51.036;5.852;2023-06-26T02:46:16;25.22;54.35
65995;HTU21D;52764;51.036;5.852;2023-06-26T02:48:42;25.18;54.26
65995;HTU21D;52764;51.036;5.852;2023-06-26T02:51:08;25.09;54.31
65995;HTU21D;52764;51.036;5.852;2023-06-26T02:53:33;25.07;54.07
65995;HTU21D;52764;51.036;5.852;2023-06-26T02:55:59;25.07;53.79
65995;HTU21D;52764;51.036;5.852;2023-06-26T02:58:25;25.05;53.62
65995;HTU21D;52764;51.036;5.852;2023-06-26T03:00:51;25.03;53.61
65995;HTU21D;52764;51.036;5.852;2023-06-26T03:03:19;25.00;53.72
65995;HTU21D;52764;51.036;5.852;2023-06-26T03:05:44;24.97;53.91
65995;HTU21D;52764;51.036;5.852;2023-06-26T03:08:11;24.92;54.17
65995;HTU21D;52764;51.036;5.852;2023-06-26T03:10:37;8.73;54.49
65995;HTU21D;52764;51.036;5.852;2023-06-26T03:13:03;24.83;55.10
65995;HTU21D;52764;51.036;5.852;2023-06-26T03:15:29;24.82;55.58
65995;HTU21D;52764;51.036;5.852;2023-06-26T03:17:54;24.80;55.94
65995;HTU21D;52764;51.036;5.852;2023-06-26T03:20:24;24.79;56.23
65995;HTU21D;52764;51.036;5.852;2023-06-26T03:22:54;24.80;56.52
65995;HTU21D;52764;51.036;5.852;2023-06-26T03:25:21;24.74;56.79
65995;HTU21D;52764;51.036;5.852;2023-06-26T03:27:48;24.68;57.20
65995;HTU21D;52764;51.036;5.852;2023-06-26T03:30:15;24.62;57.41
65995;HTU21D;52764;51.036;5.852;2023-06-26T03:32:43;24.63;57.48
65995;HTU21D;52764;51.036;5.852;2023-06-26T03:35:10;24.62;57.44
65995;HTU21D;52764;51.036;5.852;2023-06-26T03:37:35;24.60;57.56
65995;HTU21D;52764;51.036;5.852;2023-06-26T03:40:01;24.59;57.55
65995;HTU21D;52764;51.036;5.852;2023-06-26T03:42:28;24.62;57.30
65995;HTU21D;52764;51.036;5.852;2023-06-26T03:44:54;24.64;57.06
65995;HTU21D;52764;51.036;5.852;2023-06-26T03:47:20;24.82;56.91
65995;HTU21D;52764;51.036;5.852;2023-06-26T03:49:45;24.62;56.68
65995;HTU21D;52764;51.036;5.852;2023-06-26T03:52:11;24.56;56.59
65995;HTU21D;52764;51.036;5.852;2023-06-26T03:54:38;24.54;56.32
65995;HTU21D;52764;51.036;5.852;2023-06-26T03:57:04;24.50;56.08
65995;HTU21D;52764;51.036;5.852;2023-06-26T03:59:30;24.42;55.92
65995;HTU21D;52764;51.036;5.852;2023-06-26T04:01:56;24.38;55.85
65995;HTU21D;52764;51.036;5.852;2023-06-26T04:04:22;24.36;55.61
65995;HTU21D;52764;51.036;5.852;2023-06-26T04:06:47;24.36;55.42
65995;HTU21D;52764;51.036;5.852;2023-06-26T04:09:13;24.41;55.15
65995;HTU21D;52764;51.036;5.852;2023-06-26T04:11:39;24.45;54.95
65995;HTU21D;52764;51.036;5.852;2023-06-26T04:14:05;24.56;54.66
65995;HTU21D;52764;51.036;5.852;2023-06-26T04:16:30;24.66;54.78
65995;HTU21D;52764;51.036;5.852;2023-06-26T04:18:56;24.97;54.77
65995;HTU21D;52764;51.036;5.852;2023-06-26T04:21:23;25.23;53.84
65995;HTU21D;52764;51.036;5.852;2023-06-26T04:23:51;9.61;53.33
65995;HTU21D;52764;51.036;5.852;2023-06-26T04:26:17;9.63;53.38
65995;HTU21D;52764;51.036;5.852;2023-06-26T04:28:43;25.40;53.50
65995;HTU21D;52764;51.036;5.852;2023-06-26T04:31:09;25.68;52.88
65995;HTU21D;52764;51.036;5.852;2023-06-26T04:33:35;25.99;52.08
65995;HTU21D;52764;51.036;5.852;2023-06-26T04:36:03;26.43;50.96
65995;HTU21D;52764;51.036;5.852;2023-06-26T04:38:30;26.82;49.95
65995;HTU21D;52764;51.036;5.852;2023-06-26T04:40:56;27.15;49.05
65995;HTU21D;52764;51.036;5.852;2023-06-26T04:43:21;27.23;48.06
65995;HTU21D;52764;51.036;5.852;2023-06-26T04:45:47;27.29;47.93
65995;HTU21D;52764;51.036;5.852;2023-06-26T04:48:13;27.27;47.59
65995;HTU21D;52764;51.036;5.852;2023-06-26T04:50:39;26.96;47.81
65995;HTU21D;52764;51.036;5.852;2023-06-26T04:53:05;26.80;48.37
65995;HTU21D;52764;51.036;5.852;2023-06-26T04:55:31;26.57;48.95
65995;HTU21D;52764;51.036;5.852;2023-06-26T04:57:57;26.86;49.82
65995;HTU21D;52764;51.036;5.852;2023-06-26T05:00:23;27.46;48.76
65995;HTU21D;52764;51.036;5.852;2023-06-26T05:02:51;15.38;46.99
65995;HTU21D;52764;51.036;5.852;2023-06-26T05:05:28;28.70;45.44
65995;HTU21D;52764;51.036;5.852;2023-06-26T05:07:55;28.99;44.60
65995;HTU21D;52764;51.036;5.852;2023-06-26T05:10:21;29.17;43.74
65995;HTU21D;52764;51.036;5.852;2023-06-26T05:12:47;29.28;43.37
65995;HTU21D;52764;51.036;5.852;2023-06-26T05:15:13;29.48;43.28
65995;HTU21D;52764;51.036;5.852;2023-06-26T05:17:39;29.85;42.65
65995;HTU21D;52764;51.036;5.852;2023-06-26T05:20:05;30.20;41.63
65995;HTU21D;52764;51.036;5.852;2023-06-26T05:22:32;30.47;41.18
65995;HTU21D;52764;51.036;5.852;2023-06-26T05:24:59;30.85;40.36
65995;HTU21D;52764;51.036;5.852;2023-06-26T05:27:26;31.11;39.99
65995;HTU21D;52764;51.036;5.852;2023-06-26T05:29:52;31.55;39.07
65995;HTU21D;52764;51.036;5.852;2023-06-26T05:32:18;31.83;38.05
65995;HTU21D;52764;51.036;5.852;2023-06-26T05:34:48;31.98;37.89
65995;HTU21D;52764;51.036;5.852;2023-06-26T05:37:23;32.26;37.19
65995;HTU21D;52764;51.036;5.852;2023-06-26T05:39:50;32.49;36.88
65995;HTU21D;52764;51.036;5.852;2023-06-26T05:42:16;32.58;36.56
65995;HTU21D;52764;51.036;5.852;2023-06-26T05:44:42;32.79;36.35
65995;HTU21D;52764;51.036;5.852;2023-06-26T05:47:07;33.16;35.66
65995;HTU21D;52764;51.036;5.852;2023-06-26T05:49:33;33.46;35.08
65995;HTU21D;52764;51.036;5.852;2023-06-26T05:51:59;33.85;33.75
65995;HTU21D;52764;51.036;5.852;2023-06-26T05:54:25;34.15;33.62
65995;HTU21D;52764;51.036;5.852;2023-06-26T05:56:56;34.34;10.01
65995;HTU21D;52764;51.036;5.852;2023-06-26T05:59:24;34.55;33.00
65995;HTU21D;52764;51.036;5.852;2023-06-26T06:01:52;34.78;32.48
65995;HTU21D;52764;51.036;5.852;2023-06-26T06:04:18;35.06;32.16
65995;HTU21D;52764;51.036;5.852;2023-06-26T06:06:43;35.37;31.33
65995;HTU21D;52764;51.036;5.852;2023-06-26T06:09:09;35.52;30.84
65995;HTU21D;52764;51.036;5.852;2023-06-26T06:11:35;35.67;35.75
65995;HTU21D;52764;51.036;5.852;2023-06-26T06:14:01;35.84;30.10
65995;HTU21D;52764;51.036;5.852;2023-06-26T06:16:26;35.90;30.17
65995;HTU21D;52764;51.036;5.852;2023-06-26T06:18:54;36.10;29.97
65995;HTU21D;52764;51.036;5.852;2023-06-26T06:21:20;36.25;29.19
65995;HTU21D;52764;51.036;5.852;2023-06-26T06:23:46;36.14;28.80
65995;HTU21D;52764;51.036;5.852;2023-06-26T06:26:12;36.00;28.78
65995;HTU21D;52764;51.036;5.852;2023-06-26T06:28:39;36.11;28.83
65995;HTU21D;52764;51.036;5.852;2023-06-26T06:31:04;36.27;28.43
65995;HTU21D;52764;51.036;5.852;2023-06-26T06:33:30;36.16;28.40
65995;HTU21D;52764;51.036;5.852;2023-06-26T06:35:56;36.07;28.40
65995;HTU21D;52764;51.036;5.852;2023-06-26T06:38:22;36.07;28.68
65995;HTU21D;52764;51.036;5.852;2023-06-26T06:40:48;35.55;28.48
65995;HTU21D;52764;51.036;5.852;2023-06-26T06:43:13;36.58;27.84
65995;HTU21D;52764;51.036;5.852;2023-06-26T06:45:39;36.49;30.34
65995;HTU21D;52764;51.036;5.852;2023-06-26T06:48:05;36.47;28.93
65995;HTU21D;52764;51.036;5.852;2023-06-26T06:50:31;36.63;27.49
65995;HTU21D;52764;51.036;5.852;2023-06-26T06:52:57;36.82;27.32
65995;HTU21D;52764;51.036;5.852;2023-06-26T06:55:22;36.75;27.53
65995;HTU21D;52764;51.036;5.852;2023-06-26T06:57:49;36.62;27.33
65995;HTU21D;52764;51.036;5.852;2023-06-26T07:00:15;36.09;27.10
65995;HTU21D;52764;51.036;5.852;2023-06-26T07:02:45;35.45;28.65
65995;HTU21D;52764;51.036;5.852;2023-06-26T07:05:12;35.16;29.27
65995;HTU21D;52764;51.036;5.852;2023-06-26T07:07:38;35.20;29.74
65995;HTU21D;52764;51.036;5.852;2023-06-26T07:10:07;29.75;29.39
65995;HTU21D;52764;51.036;5.852;2023-06-26T07:12:33;35.59;29.21
65995;HTU21D;52764;51.036;5.852;2023-06-26T07:15:01;36.85;29.13
65995;HTU21D;52764;51.036;5.852;2023-06-26T07:17:28;36.04;28.57
65995;HTU21D;52764;51.036;5.852;2023-06-26T07:19:54;35.73;27.59
65995;HTU21D;52764;51.036;5.852;2023-06-26T07:22:19;36.58;27.68
65995;HTU21D;52764;51.036;5.852;2023-06-26T07:24:49;36.32;27.66
65995;HTU21D;52764;51.036;5.852;2023-06-26T07:27:15;36.15;27.97
65995;HTU21D;52764;51.036;5.852;2023-06-26T07:29:42;36.06;28.01
65995;HTU21D;52764;51.036;5.852;2023-06-26T07:32:08;31.27;29.93
65995;HTU21D;52764;51.036;5.852;2023-06-26T07:34:34;35.90;26.79
65995;HTU21D;52764;51.036;5.852;2023-06-26T07:37:00;35.48;28.13
65995;HTU21D;52764;51.036;5.852;2023-06-26T07:39:26;35.24;28.62
65995;HTU21D;52764;51.036;5.852;2023-06-26T07:41:52;34.82;29.12
65995;HTU21D;52764;51.036;5.852;2023-06-26T07:44:18;34.15;34.69
65995;HTU21D;52764;51.036;5.852;2023-06-26T07:46:43;27.02;30.75
65995;HTU21D;52764;51.036;5.852;2023-06-26T07:49:11;33.89;37.08
65995;HTU21D;52764;51.036;5.852;2023-06-26T07:51:37;33.86;31.24
65995;HTU21D;52764;51.036;5.852;2023-06-26T07:54:02;34.02;29.93
65995;HTU21D;52764;51.036;5.852;2023-06-26T07:56:28;34.38;31.12
65995;HTU21D;52764;51.036;5.852;2023-06-26T07:58:54;34.51;30.47
65995;HTU21D;52764;51.036;5.852;2023-06-26T08:01:20;34.26;30.46
65995;HTU21D;52764;51.036;5.852;2023-06-26T08:03:46;34.16;30.52
65995;HTU21D;52764;51.036;5.852;2023-06-26T08:06:12;34.02;30.83
65995;HTU21D;52764;51.036;5.852;2023-06-26T08:08:37;33.91;31.24
65995;HTU21D;52764;51.036;5.852;2023-06-26T08:11:03;33.73;31.43
65995;HTU21D;52764;51.036;5.852;2023-06-26T08:13:29;33.72;31.39
65995;HTU21D;52764;51.036;5.852;2023-06-26T08:15:54;33.75;31.16
65995;HTU21D;52764;51.036;5.852;2023-06-26T08:18:20;33.75;36.30
65995;HTU21D;52764;51.036;5.852;2023-06-26T08:20:46;32.02;30.95
65995;HTU21D;52764;51.036;5.852;2023-06-26T08:23:11;33.71;31.06
65995;HTU21D;52764;51.036;5.852;2023-06-26T08:25:37;33.56;31.31
65995;HTU21D;52764;51.036;5.852;2023-06-26T08:28:03;30.63;31.28
65995;HTU21D;52764;51.036;5.852;2023-06-26T08:30:29;33.52;29.27
65995;HTU21D;52764;51.036;5.852;2023-06-26T08:32:55;34.07;31.16
65995;HTU21D;52764;51.036;5.852;2023-06-26T08:35:21;30.33;31.36
65995;HTU21D;52764;51.036;5.852;2023-06-26T08:37:47;33.89;31.15
65995;HTU21D;52764;51.036;5.852;2023-06-26T08:40:17;34.34;30.06
65995;HTU21D;52764;51.036;5.852;2023-06-26T08:42:44;34.49;29.77
65995;HTU21D;52764;51.036;5.852;2023-06-26T08:45:10;34.89;29.29
65995;HTU21D;52764;51.036;5.852;2023-06-26T08:47:37;35.20;28.52
65995;HTU21D;52764;51.036;5.852;2023-06-26T08:50:13;35.07;28.35
65995;HTU21D;52764;51.036;5.852;2023-06-26T08:53:09;35.08;28.74
65995;HTU21D;52764;51.036;5.852;2023-06-26T08:55:41;35.38;28.42
65995;HTU21D;52764;51.036;5.852;2023-06-26T08:58:07;35.69;28.03
65995;HTU21D;52764;51.036;5.852;2023-06-26T09:00:34;36.85;27.45
65995;HTU21D;52764;51.036;5.852;2023-06-26T09:03:03;35.50;27.62
65995;HTU21D;52764;51.036;5.852;2023-06-26T09:05:29;34.93;28.28
65995;HTU21D;52764;51.036;5.852;2023-06-26T09:07:57;34.47;29.32
65995;HTU21D;52764;51.036;5.852;2023-06-26T09:10:24;34.52;29.40
65995;HTU21D;52764;51.036;5.852;2023-06-26T09:12:50;34.23;29.54
65995;HTU21D;52764;51.036;5.852;2023-06-26T09:15:19;33.65;30.35
65995;HTU21D;52764;51.036;5.852;2023-06-26T09:17:45;33.19;31.00
65995;HTU21D;52764;51.036;5.852;2023-06-26T09:20:12;32.99;31.56
65995;HTU21D;52764;51.036;5.852;2023-06-26T09:22:42;24.88;31.89
65995;HTU21D;52764;51.036;5.852;2023-06-26T09:25:09;32.94;32.02
65995;HTU21D;52764;51.036;5.852;2023-06-26T09:27:36;32.82;32.19
65995;HTU21D;52764;51.036;5.852;2023-06-26T09:30:03;24.06;32.19
65995;HTU21D;52764;51.036;5.852;2023-06-26T09:32:29;32.40;32.26
65995;HTU21D;52764;51.036;5.852;2023-06-26T09:34:55;32.46;32.14
65995;HTU21D;52764;51.036;5.852;2023-06-26T09:37:26;32.59;31.66
65995;HTU21D;52764;51.036;5.852;2023-06-26T09:39:52;32.58;31.49
65995;HTU21D;52764;51.036;5.852;2023-06-26T09:42:19;32.61;31.36
65995;HTU21D;52764;51.036;5.852;2023-06-26T09:44:46;32.50;30.96
65995;HTU21D;52764;51.036;5.852;2023-06-26T09:47:12;32.28;30.96
65995;HTU21D;52764;51.036;5.852;2023-06-26T09:49:42;32.10;30.98
65995;HTU21D;52764;51.036;5.852;2023-06-26T09:52:09;32.00;30.19
65995;HTU21D;52764;51.036;5.852;2023-06-26T09:54:35;31.89;31.06
65995;HTU21D;52764;51.036;5.852;2023-06-26T09:57:28;22.95;30.84
65995;HTU21D;52764;51.036;5.852;2023-06-26T09:59:54;31.95;30.45
65995;HTU21D;52764;51.036;5.852;2023-06-26T10:02:20;31.87;30.32
65995;HTU21D;52764;51.036;5.852;2023-06-26T10:04:46;31.87;30.69
65995;HTU21D;52764;51.036;5.852;2023-06-26T10:07:13;32.03;31.42
65995;HTU21D;52764;51.036;5.852;2023-06-26T10:09:44;32.15;30.48
65995;HTU21D;52764;51.036;5.852;2023-06-26T10:12:18;32.13;30.48
65995;HTU21D;52764;51.036;5.852;2023-06-26T10:14:45;32.34;29.93
65995;HTU21D;52764;51.036;5.852;2023-06-26T10:17:16;32.27;30.30
65995;HTU21D;52764;51.036;5.852;2023-06-26T10:19:44;32.20;29.96
65995;HTU21D;52764;51.036;5.852;2023-06-26T10:22:15;32.03;30.02
65995;HTU21D;52764;51.036;5.852;2023-06-26T10:24:43;31.87;29.99
65995;HTU21D;52764;51.036;5.852;2023-06-26T10:27:19;31.73;30.09
65995;HTU21D;52764;51.036;5.852;2023-06-26T10:29:49;31.73;30.67
65995;HTU21D;52764;51.036;5.852;2023-06-26T10:32:18;31.82;30.77
65995;HTU21D;52764;51.036;5.852;2023-06-26T10:34:44;31.93;35.73
65995;HTU21D;52764;51.036;5.852;2023-06-26T10:37:12;31.99;29.91
65995;HTU21D;52764;51.036;5.852;2023-06-26T10:39:48;32.10;3.28
65995;HTU21D;52764;51.036;5.852;2023-06-26T10:42:16;31.95;29.17
65995;HTU21D;52764;51.036;5.852;2023-06-26T10:44:44;31.76;29.29
65995;HTU21D;52764;51.036;5.852;2023-06-26T10:47:11;31.74;29.77
65995;HTU21D;52764;51.036;5.852;2023-06-26T10:49:38;31.78;29.16
65995;HTU21D;52764;51.036;5.852;2023-06-26T10:52:07;31.70;28.81
65995;HTU21D;52764;51.036;5.852;2023-06-26T10:54:34;31.68;28.70
65995;HTU21D;52764;51.036;5.852;2023-06-26T10:57:01;31.74;28.19
65995;HTU21D;52764;51.036;5.852;2023-06-26T10:59:30;31.45;28.09
65995;HTU21D;52764;51.036;5.852;2023-06-26T11:02:01;31.31;27.95
65995;HTU21D;52764;51.036;5.852;2023-06-26T11:07:24;31.02;27.46
65995;HTU21D;52764;51.036;5.852;2023-06-26T11:12:43;30.89;27.79
65995;HTU21D;52764;51.036;5.852;2023-06-26T11:15:13;30.87;28.19
65995;HTU21D;52764;51.036;5.852;2023-06-26T11:17:40;30.84;28.04
65995;HTU21D;52764;51.036;5.852;2023-06-26T11:20:12;30.68;27.26
65995;HTU21D;52764;51.036;5.852;2023-06-26T11:22:40;30.61;27.19
65995;HTU21D;52764;51.036;5.852;2023-06-26T11:25:08;30.68;27.19
65995;HTU21D;52764;51.036;5.852;2023-06-26T11:30:02;30.87;27.23
65995;HTU21D;52764;51.036;5.852;2023-06-26T11:32:28;31.61;27.13
65995;HTU21D;52764;51.036;5.852;2023-06-26T11:34:54;30.75;26.89
65995;HTU21D;52764;51.036;5.852;2023-06-26T11:37:21;30.60;26.92
65995;HTU21D;52764;51.036;5.852;2023-06-26T11:39:48;30.53;26.76
65995;HTU21D;52764;51.036;5.852;2023-06-26T11:42:13;30.55;25.94
65995;HTU21D;52764;51.036;5.852;2023-06-26T11:44:41;30.66;25.56
65995;HTU21D;52764;51.036;5.852;2023-06-26T11:47:21;30.67;25.10
65995;HTU21D;52764;51.036;5.852;2023-06-26T11:49:49;30.65;25.20
65995;HTU21D;52764;51.036;5.852;2023-06-26T11:52:16;30.69;25.65
65995;HTU21D;52764;51.036;5.852;2023-06-26T11:54:43;30.59;25.76
65995;HTU21D;52764;51.036;5.852;2023-06-26T11:57:14;30.48;26.31
65995;HTU21D;52764;51.036;5.852;2023-06-26T11:59:40;30.33;27.10
65995;HTU21D;52764;51.036;5.852;2023-06-26T12:02:11;30.26;26.20
65995;HTU21D;52764;51.036;5.852;2023-06-26T12:04:41;30.20;25.90
65995;HTU21D;52764;51.036;5.852;2023-06-26T12:07:09;30.13;26.36
65995;HTU21D;52764;51.036;5.852;2023-06-26T12:09:46;30.20;26.79
65995;HTU21D;52764;51.036;5.852;2023-06-26T12:12:16;30.30;27.09
65995;HTU21D;52764;51.036;5.852;2023-06-26T12:14:43;30.41;27.06
65995;HTU21D;52764;51.036;5.852;2023-06-26T12:17:13;30.48;26.94
65995;HTU21D;52764;51.036;5.852;2023-06-26T12:19:44;30.48;27.13
65995;HTU21D;52764;51.036;5.852;2023-06-26T12:22:10;30.41;26.23
65995;HTU21D;52764;51.036;5.852;2023-06-26T12:24:38;30.26;26.49
65995;HTU21D;52764;51.036;5.852;2023-06-26T12:27:15;30.26;27.00
65995;HTU21D;52764;51.036;5.852;2023-06-26T12:29:54;30.33;27.19
65995;HTU21D;52764;51.036;5.852;2023-06-26T12:32:24;30.74;27.16
65995;HTU21D;52764;51.036;5.852;2023-06-26T12:34:56;30.28;27.62
65995;HTU21D;52764;51.036;5.852;2023-06-26T12:37:22;30.31;28.24
65995;HTU21D;52764;51.036;5.852;2023-06-26T12:39:53;30.42;28.48
65995;HTU21D;52764;51.036;5.852;2023-06-26T12:42:21;19.71;27.93
65995;HTU21D;52764;51.036;5.852;2023-06-26T12:44:48;30.05;28.44
65995;HTU21D;52764;51.036;5.852;2023-06-26T12:47:23;30.02;28.45
65995;HTU21D;52764;51.036;5.852;2023-06-26T12:49:52;29.95;28.49
65995;HTU21D;52764;51.036;5.852;2023-06-26T12:52:19;29.85;28.49
65995;HTU21D;52764;51.036;5.852;2023-06-26T12:54:52;29.71;32.58
65995;HTU21D;52764;51.036;5.852;2023-06-26T12:57:19;29.74;28.56
65995;HTU21D;52764;51.036;5.852;2023-06-26T12:59:44;29.67;27.86
65995;HTU21D;52764;51.036;5.852;2023-06-26T13:02:10;29.61;28.12
65995;HTU21D;52764;51.036;5.852;2023-06-26T13:04:40;29.60;27.09
65995;HTU21D;52764;51.036;5.852;2023-06-26T13:07:07;29.53;27.64
65995;HTU21D;52764;51.036;5.852;2023-06-26T13:09:34;29.68;27.90
65995;HTU21D;52764;51.036;5.852;2023-06-26T13:12:00;29.78;27.71
65995;HTU21D;52764;51.036;5.852;2023-06-26T13:14:27;29.75;27.45
65995;HTU21D;52764;51.036;5.852;2023-06-26T13:16:52;29.74;27.69
65995;HTU21D;52764;51.036;5.852;2023-06-26T13:19:18;29.80;27.20
65995;HTU21D;52764;51.036;5.852;2023-06-26T13:21:44;29.73;26.88
65995;HTU21D;52764;51.036;5.852;2023-06-26T13:24:10;29.66;27.40
65995;HTU21D;52764;51.036;5.852;2023-06-26T13:26:35;29.68;27.04
65995;HTU21D;52764;51.036;5.852;2023-06-26T13:29:01;29.70;27.07
65995;HTU21D;52764;51.036;5.852;2023-06-26T13:31:27;29.68;27.00
65995;HTU21D;52764;51.036;5.852;2023-06-26T13:33:53;29.66;28.36
65995;HTU21D;52764;51.036;5.852;2023-06-26T13:36:19;29.74;27.08
65995;HTU21D;52764;51.036;5.852;2023-06-26T13:38:46;29.73;26.59
65995;HTU21D;52764;51.036;5.852;2023-06-26T13:41:14;29.66;26.39
65995;HTU21D;52764;51.036;5.852;2023-06-26T13:43:40;29.49;26.76
65995;HTU21D;52764;51.036;5.852;2023-06-26T13:46:06;29.45;27.50
65995;HTU21D;52764;51.036;5.852;2023-06-26T13:48:32;29.37;28.10
65995;HTU21D;52764;51.036;5.852;2023-06-26T13:50:58;29.21;27.78
65995;HTU21D;52764;51.036;5.852;2023-06-26T13:53:24;29.12;28.42
65995;HTU21D;52764;51.036;5.852;2023-06-26T13:55:50;29.13;28.39
65995;HTU21D;52764;51.036;5.852;2023-06-26T13:58:15;29.06;28.41
65995;HTU21D;52764;51.036;5.852;2023-06-26T14:00:41;29.05;29.05
65995;HTU21D;52764;51.036;5.852;2023-06-26T14:03:09;29.13;28.58
65995;HTU21D;52764;51.036;5.852;2023-06-26T14:05:36;29.20;29.42
65995;HTU21D;52764;51.036;5.852;2023-06-26T14:08:04;29.42;28.90
65995;HTU21D;52764;51.036;5.852;2023-06-26T14:10:31;29.64;28.23
65995;HTU21D;52764;51.036;5.852;2023-06-26T14:12:58;29.62;-0.56
65995;HTU21D;52764;51.036;5.852;2023-06-26T14:15:24;18.47;27.44
65995;HTU21D;52764;51.036;5.852;2023-06-26T14:17:50;29.67;27.38
65995;HTU21D;52764;51.036;5.852;2023-06-26T14:20:17;29.58;27.44
65995;HTU21D;52764;51.036;5.852;2023-06-26T14:22:43;29.44;27.72
65995;HTU21D;52764;51.036;5.852;2023-06-26T14:25:10;29.50;27.91
65995;HTU21D;52764;51.036;5.852;2023-06-26T14:27:37;29.64;27.94
65995;HTU21D;52764;51.036;5.852;2023-06-26T14:30:04;29.67;27.62
65995;HTU21D;52764;51.036;5.852;2023-06-26T14:32:30;29.62;27.39
65995;HTU21D;52764;51.036;5.852;2023-06-26T14:34:56;29.60;27.88
65995;HTU21D;52764;51.036;5.852;2023-06-26T14:37:22;29.38;27.44
65995;HTU21D;52764;51.036;5.852;2023-06-26T14:39:49;29.62;27.59
65995;HTU21D;52764;51.036;5.852;2023-06-26T14:42:15;29.41;27.71
65995;HTU21D;52764;51.036;5.852;2023-06-26T14:44:41;29.58;27.55
65995;HTU21D;52764;51.036;5.852;2023-06-26T14:47:07;29.53;27.94
65995;HTU21D;52764;51.036;5.852;2023-06-26T14:49:32;29.62;27.36
65995;HTU21D;52764;51.036;5.852;2023-06-26T14:51:58;29.60;27.20
65995;HTU21D;52764;51.036;5.852;2023-06-26T14:54:24;29.50;27.20
65995;HTU21D;52764;51.036;5.852;2023-06-26T14:56:50;29.49;27.10
65995;HTU21D;52764;51.036;5.852;2023-06-26T14:59:16;29.49;26.71
65995;HTU21D;52764;51.036;5.852;2023-06-26T15:01:41;29.38;26.87
65995;HTU21D;52764;51.036;5.852;2023-06-26T15:04:07;29.36;27.19
65995;HTU21D;52764;51.036;5.852;2023-06-26T15:06:34;29.38;27.58
65995;HTU21D;52764;51.036;5.852;2023-06-26T15:09:00;29.48;27.70
65995;HTU21D;52764;51.036;5.852;2023-06-26T15:11:26;29.62;27.45
65995;HTU21D;52764;51.036;5.852;2023-06-26T15:13:52;29.72;27.32
65995;HTU21D;52764;51.036;5.852;2023-06-26T15:16:18;29.65;27.16
65995;HTU21D;52764;51.036;5.852;2023-06-26T15:18:44;29.66;28.71
65995;HTU21D;52764;51.036;5.852;2023-06-26T15:21:10;29.66;26.99
65995;HTU21D;52764;51.036;5.852;2023-06-26T15:23:36;29.70;26.73
65995;HTU21D;52764;51.036;5.852;2023-06-26T15:26:01;29.68;26.82
65995;HTU21D;52764;51.036;5.852;2023-06-26T15:28:27;29.68;26.78
65995;HTU21D;52764;51.036;5.852;2023-06-26T15:30:53;29.67;26.95
65995;HTU21D;52764;51.036;5.852;2023-06-26T15:33:18;29.61;27.19